Time;durP1;ratioP1;P1;durP2;ratioP2;P2;SDS_P1;SDS_P2;PMS_P1;PMS_P2;Temp;Humidity;BMP_temperature;BMP_pressure;BME280_temperature;BME280_humidity;BME280_pressure;Samples;Min_cycle;Max_cycle;Signal;HPM_P1;HPM_P2
2023/10/27 00:01:29;;;;;;;3.23;2.60;;;;;;;11.78;100.00;94174.75;5031993;28;101969;-78
2023/10/27 00:03:56;;;;;;;3.80;2.70;;;;;;;11.73;100.00;94169.59;5029305;28;104891;-76
2023/10/27 00:06:23;;;;;;;8.17;3.13;;;;;;;11.69;100.00;94165.97;5028835;28;105402;-76
2023/10/27 00:08:52;;;;;;;4.03;2.77;;;;;;;11.66;100.00;94167.38;5028905;28;101832;-76
2023/10/27 00:11:18;;;;;;;4.33;2.80;;;;;;;11.67;100.00;94158.28;5029130;28;105382;-76
2023/10/27 00:13:45;;;;;;;3.47;2.33;;;;;;;11.54;100.00;94151.19;5028636;28;105151;-76
2023/10/27 00:16:12;;;;;;;6.13;2.90;;;;;;;11.59;100.00;94147.63;5028803;28;102007;-76
2023/10/27 00:18:39;;;;;;;6.80;3.83;;;;;;;11.54;100.00;94147.72;5028882;28;105855;-76
2023/10/27 00:21:06;;;;;;;2.40;2.20;;;;;;;11.45;100.00;94149.59;5030407;28;105063;-76
2023/10/27 00:23:33;;;;;;;2.40;2.20;;;;;;;11.45;100.00;94155.69;5029069;28;104608;-76
2023/10/27 00:26:01;;;;;;;3.07;2.03;;;;;;;11.42;100.00;94145.69;5028094;28;105569;-77
2023/10/27 00:28:29;;;;;;;2.30;1.50;;;;;;;11.37;100.00;94143.16;5028691;28;101917;-77
2023/10/27 00:30:56;;;;;;;2.60;1.50;;;;;;;11.35;100.00;94139.25;5028959;28;105384;-78
2023/10/27 00:33:23;;;;;;;4.67;1.90;;;;;;;11.30;100.00;94137.53;5028180;28;104923;-78
2023/10/27 00:35:51;;;;;;;2.40;1.80;;;;;;;11.27;100.00;94126.69;5028675;28;101917;-78
2023/10/27 00:38:19;;;;;;;4.70;2.63;;;;;;;11.29;100.00;94119.19;5028487;28;105486;-78
2023/10/27 00:40:45;;;;;;;2.90;2.13;;;;;;;11.16;100.00;94114.75;5027997;28;105382;-78
2023/10/27 00:43:17;;;;;;;6.07;2.97;;;;;;;11.20;100.00;94110.41;5032072;28;102355;-80
2023/10/27 00:45:48;;;;;;;4.53;2.50;;;;;;;11.19;100.00;94117.63;5028222;28;104301;-80
2023/10/27 00:48:15;;;;;;;6.53;2.27;;;;;;;11.20;100.00;94126.38;5028558;28;101909;-78
2023/10/27 00:50:43;;;;;;;4.07;2.30;;;;;;;11.14;100.00;94119.63;5028346;28;105101;-78
2023/10/27 00:53:11;;;;;;;4.90;2.23;;;;;;;11.03;100.00;94115.66;5027840;28;105357;-78
2023/10/27 00:55:39;;;;;;;7.73;2.30;;;;;;;11.06;100.00;94120.38;5028101;28;102149;-79
2023/10/27 00:58:10;;;;;;;3.67;2.57;;;;;;;11.05;100.00;94113.47;5028481;28;103805;-76
2023/10/27 01:00:39;;;;;;;6.07;2.77;;;;;;;11.06;100.00;94113.19;5027969;28;105905;-78
2023/10/27 01:03:06;;;;;;;7.73;3.10;;;;;;;11.08;100.00;94111.00;5028402;28;102049;-79
2023/10/27 01:05:33;;;;;;;5.47;2.50;;;;;;;11.05;100.00;94110.81;5031156;28;104624;-79
2023/10/27 01:08:00;;;;;;;5.47;2.70;;;;;;;11.05;100.00;94102.84;5028251;28;102046;-79
2023/10/27 01:10:28;;;;;;;3.73;2.80;;;;;;;11.05;100.00;94092.19;5028341;28;105035;-76
2023/10/27 01:12:54;;;;;;;5.97;2.73;;;;;;;11.07;100.00;94090.03;5027546;28;105745;-76
2023/10/27 01:15:21;;;;;;;5.47;3.03;;;;;;;11.07;100.00;94090.03;5028410;28;101945;-76
2023/10/27 01:17:50;;;;;;;4.47;2.90;;;;;;;11.04;100.00;94094.09;5028093;28;105643;-76
2023/10/27 01:20:17;;;;;;;4.20;3.20;;;;;;;11.03;100.00;94097.06;5027786;28;105760;-76
2023/10/27 01:22:46;;;;;;;3.83;3.07;;;;;;;11.07;100.00;94103.34;5028348;28;101882;-76
2023/10/27 01:25:14;;;;;;;2.80;2.60;;;;;;;11.06;100.00;94099.13;5028141;28;104904;-76
2023/10/27 01:27:41;;;;;;;5.53;2.87;;;;;;;11.01;100.00;94093.94;5030815;28;105277;-77
2023/10/27 01:30:09;;;;;;;4.67;2.57;;;;;;;11.00;100.00;94095.00;5028154;28;104910;-77
2023/10/27 01:32:36;;;;;;;4.80;2.97;;;;;;;11.06;100.00;94097.22;5030143;27;105720;-77
2023/10/27 01:35:04;;;;;;;4.37;2.80;;;;;;;11.03;100.00;94091.72;5031347;28;101975;-77
2023/10/27 01:37:30;;;;;;;3.17;2.87;;;;;;;11.00;100.00;94090.47;5031458;28;105438;-77
2023/10/27 01:39:59;;;;;;;3.97;3.07;;;;;;;11.01;100.00;94092.03;5030586;28;105694;-77
2023/10/27 01:42:26;;;;;;;5.27;3.33;;;;;;;10.95;100.00;94089.84;5031429;28;102507;-77
2023/10/27 01:44:53;;;;;;;5.73;3.77;;;;;;;10.94;100.00;94086.38;5031468;28;104758;-77
2023/10/27 01:47:20;;;;;;;5.77;4.50;;;;;;;10.86;100.00;94083.69;5030573;28;105196;-78
2023/10/27 01:49:47;;;;;;;5.47;4.50;;;;;;;10.83;100.00;94086.97;5034407;28;101904;-78
2023/10/27 01:52:14;;;;;;;9.33;5.57;;;;;;;10.76;100.00;94089.28;5030670;28;105443;-78
2023/10/27 01:54:41;;;;;;;7.40;5.40;;;;;;;10.67;100.00;94096.44;5031107;28;102273;-78
2023/10/27 01:57:09;;;;;;;8.20;6.77;;;;;;;10.64;100.00;94097.06;5030938;28;104911;-78
2023/10/27 01:59:36;;;;;;;14.37;7.30;;;;;;;10.65;100.00;94101.28;5030546;28;105022;-77
2023/10/27 02:02:03;;;;;;;9.00;6.77;;;;;;;10.56;100.00;94100.44;5031011;28;102432;-77
2023/10/27 02:04:35;;;;;;;6.03;5.50;;;;;;;10.47;100.00;94108.38;5031004;28;104851;-74
2023/10/27 02:07:02;;;;;;;7.00;5.60;;;;;;;10.45;100.00;94112.41;5030425;28;105486;-74
2023/10/27 02:09:30;;;;;;;6.83;4.90;;;;;;;10.41;100.00;94127.41;5034270;28;102056;-74
2023/10/27 02:11:57;;;;;;;8.10;4.87;;;;;;;10.39;100.00;94146.31;5030262;28;105091;-74
2023/10/27 02:14:26;;;;;;;5.27;3.87;;;;;;;10.31;100.00;94135.63;5030838;28;101936;-74
2023/10/27 02:16:53;;;;;;;6.37;4.03;;;;;;;10.27;100.00;94139.97;5030777;28;104995;-74
2023/10/27 02:19:20;;;;;;;7.20;4.10;;;;;;;10.22;100.00;94145.41;5030189;28;104438;-74
2023/10/27 02:21:47;;;;;;;6.73;4.10;;;;;;;10.22;100.00;94148.06;5030735;28;101905;-74
2023/10/27 02:24:14;;;;;;;6.43;3.77;;;;;;;10.18;100.00;94153.19;5030701;28;105942;-74
2023/10/27 02:26:41;;;;;;;5.20;3.30;;;;;;;10.16;100.00;94159.88;5030380;28;104997;-77
2023/10/27 02:29:08;;;;;;;5.50;3.33;;;;;;;10.17;100.00;94151.63;5030416;28;101969;-77
2023/10/27 02:31:38;;;;;;;4.83;3.40;;;;;;;10.12;100.00;94161.56;5033289;28;105179;-77
2023/10/27 02:34:04;;;;;;;5.87;3.97;;;;;;;10.09;100.00;94164.84;5030628;28;102080;-78
2023/10/27 02:36:32;;;;;;;10.27;3.43;;;;;;;10.07;100.00;94164.34;5030540;28;104861;-78
2023/10/27 02:38:58;;;;;;;5.27;2.93;;;;;;;10.05;100.00;94174.47;5030982;28;103196;-78
2023/10/27 02:41:25;;;;;;;6.37;3.00;;;;;;;10.05;100.00;94180.59;5030431;28;102738;-78
2023/10/27 02:43:52;;;;;;;5.83;3.10;;;;;;;10.03;100.00;94192.56;5029345;28;105374;-78
2023/10/27 02:46:19;;;;;;;5.20;2.90;;;;;;;10.02;100.00;94185.66;5029728;28;105607;-78
2023/10/27 02:48:48;;;;;;;5.53;3.00;;;;;;;10.02;100.00;94186.44;5030367;28;102422;-78
2023/10/27 02:51:16;;;;;;;5.53;3.10;;;;;;;10.06;100.00;94186.66;5030255;28;104928;-78
2023/10/27 02:53:43;;;;;;;5.40;3.33;;;;;;;10.12;100.00;94188.13;5032812;28;105382;-78
2023/10/27 02:56:11;;;;;;;4.97;3.43;;;;;;;10.11;100.00;94190.00;5030026;28;104774;-78
2023/10/27 02:58:38;;;;;;;4.30;3.53;;;;;;;10.11;100.00;94194.53;5029565;28;104069;-78
2023/10/27 03:01:08;;;;;;;4.83;3.27;;;;;;;10.13;100.00;94202.97;5030207;28;101937;-78
2023/10/27 03:03:36;;;;;;;5.37;3.80;;;;;;;10.08;100.00;94213.72;5030122;28;105308;-78
2023/10/27 03:06:05;;;;;;;7.20;4.17;;;;;;;10.07;100.00;94218.22;5029494;28;105016;-78
2023/10/27 03:08:33;;;;;;;4.20;3.40;;;;;;;10.06;100.00;94218.53;5030107;28;102336;-78
2023/10/27 03:11:00;;;;;;;3.50;3.20;;;;;;;10.05;100.00;94223.06;5030043;28;105182;-78
2023/10/27 03:13:28;;;;;;;4.10;3.30;;;;;;;10.05;100.00;94228.38;5029400;28;104324;-77
2023/10/27 03:15:55;;;;;;;6.57;3.47;;;;;;;10.00;100.00;94235.63;5033372;28;101860;-77
2023/10/27 03:18:22;;;;;;;3.63;2.80;;;;;;;10.01;100.00;94234.53;5029220;28;105648;-78
2023/10/27 03:20:54;;;;;;;3.83;3.07;;;;;;;10.00;100.00;94235.63;5029691;28;101924;-78
2023/10/27 03:23:23;;;;;;;3.90;2.90;;;;;;;10.00;100.00;94249.69;5029959;28;105024;-78
2023/10/27 03:25:50;;;;;;;3.27;2.50;;;;;;;9.96;100.00;94255.88;5029128;28;105661;-78
2023/10/27 03:28:17;;;;;;;4.93;3.20;;;;;;;9.97;100.00;94254.81;5029718;28;101928;-78
2023/10/27 03:30:45;;;;;;;3.00;2.70;;;;;;;10.01;100.00;94263.75;5029614;28;103979;-78
2023/10/27 03:33:12;;;;;;;4.03;2.90;;;;;;;10.00;100.00;94267.47;5029092;28;104241;-78
2023/10/27 03:35:42;;;;;;;3.27;2.60;;;;;;;10.03;100.00;94266.91;5029421;28;101984;-78
2023/10/27 03:38:09;;;;;;;3.57;2.60;;;;;;;10.06;100.00;94267.13;5032210;28;105213;-78
2023/10/27 03:40:38;;;;;;;2.60;2.40;;;;;;;9.99;100.00;94266.72;5029598;28;102028;-78
2023/10/27 03:43:05;;;;;;;3.93;3.00;;;;;;;9.99;100.00;94265.91;5029581;28;105471;-79
2023/10/27 03:45:32;;;;;;;2.63;2.43;;;;;;;10.00;100.00;94268.28;5028798;28;104026;-77
2023/10/27 03:47:59;;;;;;;3.17;2.87;;;;;;;10.01;100.00;94264.53;5029319;28;102025;-77
2023/10/27 03:50:27;;;;;;;3.50;2.43;;;;;;;10.01;100.00;94266.38;5029486;28;104982;-77
2023/10/27 03:52:54;;;;;;;1.87;1.77;;;;;;;9.97;100.00;94273.41;5028824;28;105629;-77
2023/10/27 03:55:21;;;;;;;2.53;1.80;;;;;;;10.01;100.00;94267.19;5028743;27;101914;-77
2023/10/27 03:57:50;;;;;;;2.63;2.40;;;;;;;10.00;100.00;94262.16;5030771;28;102619;-77
2023/10/27 04:00:17;;;;;;;3.23;2.47;;;;;;;10.06;100.00;94264.47;5031994;28;105816;-77
2023/10/27 04:02:46;;;;;;;9.97;6.90;;;;;;;10.07;100.00;94268.69;5029231;28;105192;-77
2023/10/27 04:05:12;;;;;;;9.00;6.40;;;;;;;10.16;100.00;94261.59;5028432;28;105509;-75
2023/10/27 04:07:39;;;;;;;6.43;4.70;;;;;;;10.19;100.00;94254.91;5029032;28;101904;-77
2023/10/27 04:10:07;;;;;;;8.87;5.93;;;;;;;10.21;100.00;94273.97;5029013;28;104853;-78
2023/10/27 04:12:34;;;;;;;12.37;7.43;;;;;;;10.19;100.00;94282.22;5029716;28;103004;-78
2023/10/27 04:15:02;;;;;;;4.20;3.20;;;;;;;10.11;100.00;94282.16;5028888;28;102228;-78
2023/10/27 04:17:29;;;;;;;3.27;2.80;;;;;;;10.10;100.00;94286.69;5028954;28;103833;-78
2023/10/27 04:19:56;;;;;;;4.87;4.30;;;;;;;10.02;100.00;94291.84;5032162;28;104311;-78
2023/10/27 04:22:23;;;;;;;3.10;2.90;;;;;;;9.99;100.00;94292.47;5028902;28;105547;-78
2023/10/27 04:24:50;;;;;;;2.93;2.50;;;;;;;10.04;100.00;94295.81;5028464;28;105844;-78
2023/10/27 04:27:17;;;;;;;3.20;2.30;;;;;;;10.02;100.00;94297.16;5029386;28;102095;-78
2023/10/27 04:29:44;;;;;;;2.30;2.10;;;;;;;9.99;100.00;94295.13;5028600;28;105685;-78
2023/10/27 04:32:13;;;;;;;2.30;2.10;;;;;;;10.01;100.00;94306.22;5028229;28;105353;-76
2023/10/27 04:34:40;;;;;;;2.53;2.30;;;;;;;10.01;100.00;94293.75;5028744;28;101862;-75
2023/10/27 04:37:07;;;;;;;1.70;1.60;;;;;;;9.99;100.00;94303.09;5030169;28;102987;-75
2023/10/27 04:39:34;;;;;;;1.87;1.70;;;;;;;9.99;100.00;94300.44;5027822;28;105344;-77
2023/10/27 04:42:01;;;;;;;3.97;2.07;;;;;;;10.01;100.00;94306.22;5032525;28;101884;-77
2023/10/27 04:44:28;;;;;;;2.60;1.80;;;;;;;10.06;100.00;94312.25;5030210;28;102825;-77
2023/10/27 04:46:55;;;;;;;2.50;1.73;;;;;;;9.99;100.00;94314.50;5029387;28;101988;-78
2023/10/27 04:49:23;;;;;;;3.30;1.43;;;;;;;10.00;100.00;94310.75;5029485;28;105649;-78
2023/10/27 04:51:50;;;;;;;1.40;1.30;;;;;;;10.05;100.00;94307.22;5028893;28;105159;-79
2023/10/27 04:54:17;;;;;;;2.63;1.60;;;;;;;10.03;100.00;94296.09;5029602;28;101745;-79
2023/10/27 04:56:44;;;;;;;1.60;1.50;;;;;;;10.01;100.00;94295.59;5028869;28;104725;-79
2023/10/27 04:59:11;;;;;;;2.33;1.23;;;;;;;9.99;100.00;94308.41;5030255;28;102952;-78
2023/10/27 05:01:38;;;;;;;1.60;1.40;;;;;;;10.01;100.00;94311.53;5029353;28;101994;-79
2023/10/27 05:04:06;;;;;;;2.20;1.67;;;;;;;10.06;100.00;94300.84;5032209;28;105564;-79
2023/10/27 05:06:34;;;;;;;1.40;1.30;;;;;;;10.01;100.00;94311.53;5030189;27;101913;-79
2023/10/27 05:09:01;;;;;;;1.13;1.13;;;;;;;9.99;100.00;94313.69;5032624;28;105267;-79
2023/10/27 05:11:28;;;;;;;1.73;1.63;;;;;;;10.04;100.00;94308.31;5032225;28;105515;-79
2023/10/27 05:13:55;;;;;;;1.00;1.00;;;;;;;10.03;100.00;94318.13;5032746;28;102004;-79
2023/10/27 05:16:22;;;;;;;1.70;1.20;;;;;;;10.06;100.00;94303.50;5032757;28;104877;-79
2023/10/27 05:18:48;;;;;;;1.30;1.20;;;;;;;10.06;100.00;94309.59;5032070;28;105683;-79
2023/10/27 05:21:17;;;;;;;1.90;1.80;;;;;;;10.09;100.00;94311.66;5032624;28;101995;-79
2023/10/27 05:23:45;;;;;;;1.90;1.80;;;;;;;10.14;100.00;94303.56;5034128;28;102691;-79
2023/10/27 05:26:14;;;;;;;2.20;2.10;;;;;;;10.17;100.00;94299.53;5035047;28;105428;-79
2023/10/27 05:28:41;;;;;;;6.13;3.13;;;;;;;10.18;100.00;94307.22;5032552;28;103997;-79
2023/10/27 05:31:08;;;;;;;2.53;2.17;;;;;;;10.18;100.00;94304.56;5031540;28;105463;-79
2023/10/27 05:33:35;;;;;;;3.43;2.50;;;;;;;10.18;100.00;94298.44;5032340;28;102068;-79
2023/10/27 05:36:03;;;;;;;2.63;2.40;;;;;;;10.18;100.00;94299.25;5032428;28;105074;-79
2023/10/27 05:38:30;;;;;;;3.40;2.97;;;;;;;10.18;100.00;94301.09;5031407;28;104998;-79
2023/10/27 05:40:58;;;;;;;3.80;2.53;;;;;;;10.13;100.00;94296.69;5032308;28;101979;-79
2023/10/27 05:43:26;;;;;;;3.13;2.83;;;;;;;10.16;100.00;94292.66;5033474;28;102653;-79
2023/10/27 05:45:53;;;;;;;3.70;2.87;;;;;;;10.18;100.00;94296.59;5031672;28;105939;-79
2023/10/27 05:48:20;;;;;;;2.40;2.20;;;;;;;10.23;100.00;94298.34;5035670;28;102056;-79
2023/10/27 05:50:47;;;;;;;3.43;2.77;;;;;;;10.20;100.00;94288.34;5031331;28;105570;-79
2023/10/27 05:53:15;;;;;;;2.67;2.50;;;;;;;10.21;100.00;94288.03;5032010;28;102246;-79
2023/10/27 05:55:42;;;;;;;2.90;2.70;;;;;;;10.25;100.00;94301.50;5031524;28;103762;-79
2023/10/27 05:58:10;;;;;;;3.83;3.10;;;;;;;10.18;100.00;94291.28;5031365;28;105421;-79
2023/10/27 06:00:37;;;;;;;3.70;3.40;;;;;;;10.23;100.00;94299.16;5032145;28;101950;-79
2023/10/27 06:03:04;;;;;;;2.67;2.47;;;;;;;10.18;100.00;94301.09;5031998;28;103940;-79
2023/10/27 06:05:31;;;;;;;2.07;1.97;;;;;;;10.16;100.00;94311.25;5031360;28;105462;-79
2023/10/27 06:07:58;;;;;;;1.80;1.60;;;;;;;10.15;100.00;94321.06;5031009;28;102323;-78
2023/10/27 06:10:25;;;;;;;2.73;1.80;;;;;;;10.16;100.00;94325.31;5033573;28;105221;-85
2023/10/27 06:12:52;;;;;;;1.87;1.70;;;;;;;10.19;100.00;94321.28;5032232;28;101840;-79
2023/10/27 06:15:21;;;;;;;2.00;1.90;;;;;;;10.19;100.00;94327.38;5031597;28;104047;-79
2023/10/27 06:17:48;;;;;;;1.60;1.50;;;;;;;10.24;100.00;94334.47;5030643;27;105317;-77
2023/10/27 06:20:15;;;;;;;4.33;2.17;;;;;;;10.23;100.00;94336.31;5031741;28;101995;-89
2023/10/27 06:22:43;;;;;;;2.00;1.90;;;;;;;10.25;100.00;94344.00;5031799;28;104039;-81
2023/10/27 06:25:11;;;;;;;3.00;2.73;;;;;;;10.30;100.00;94339.34;5030572;28;105646;-92
2023/10/27 06:27:38;;;;;;;3.23;2.80;;;;;;;10.31;100.00;94338.28;5015394;28;101878;-83
2023/10/27 06:30:13;;;;;;;2.50;2.27;;;;;;;10.35;100.00;94333.19;5034121;28;102734;-80
2023/10/27 06:32:44;;;;;;;2.27;2.07;;;;;;;10.35;100.00;94333.19;5031292;28;101988;-80
2023/10/27 06:35:20;;;;;;;2.37;1.70;;;;;;;10.34;100.00;94326.25;5031268;28;105013;-80
2023/10/27 06:37:47;;;;;;;2.20;1.80;;;;;;;10.36;100.00;94322.22;5030804;28;105446;-80
2023/10/27 06:40:23;;;;;;;2.33;1.47;;;;;;;10.34;100.00;94320.94;5031391;28;101972;-78
2023/10/27 06:42:52;;;;;;;2.30;1.33;;;;;;;10.27;100.00;94310.75;5031209;28;104888;-78
2023/10/27 06:45:19;;;;;;;1.90;1.80;;;;;;;10.38;100.00;94312.09;5030223;28;105145;-78
2023/10/27 06:48:05;;;;;;;1.50;1.40;;;;;;;10.42;100.00;94320.25;5029782;28;101916;-78
2023/10/27 06:50:41;;;;;;;1.87;1.73;;;;;;;10.49;100.00;94328.59;5027468;27;105406;-78
2023/10/27 06:53:09;;;;;;;2.10;1.90;;;;;;;10.50;100.00;94324.84;5033415;28;104116;-78
2023/10/27 06:55:39;;;;;;;18.07;16.23;;;;;;;10.38;100.00;94321.94;5018746;28;105471;-78
2023/10/27 06:58:07;;;;;;;4.40;4.00;;;;;;;10.40;100.00;94315.25;5023528;28;105143;-78
2023/10/27 07:00:34;;;;;;;3.47;2.33;;;;;;;10.39;100.00;94326.16;5030927;28;101909;-78
2023/10/27 07:03:03;;;;;;;2.57;2.37;;;;;;;10.34;100.00;94328.91;5030704;28;105604;-77
2023/10/27 07:05:30;;;;;;;5.07;2.90;;;;;;;10.33;100.00;94325.50;5030210;28;105946;-78
2023/10/27 07:07:57;;;;;;;2.50;2.30;;;;;;;10.35;100.00;94325.19;5011845;28;103472;-77
2023/10/27 07:10:24;;;;;;;3.43;2.90;;;;;;;10.29;100.00;94339.66;5010606;28;105406;-77
2023/10/27 07:12:50;;;;;;;3.93;3.33;;;;;;;10.29;100.00;94329.03;5026711;28;105498;-77
2023/10/27 07:15:19;;;;;;;4.30;2.77;;;;;;;10.31;100.00;94334.84;5034122;28;101949;-77
2023/10/27 07:17:46;;;;;;;4.93;3.17;;;;;;;10.29;100.00;94337.00;5031416;27;102803;-77
2023/10/27 07:20:14;;;;;;;3.00;2.80;;;;;;;10.34;100.00;94331.56;5031995;27;101888;-78
2023/10/27 07:22:41;;;;;;;4.00;3.50;;;;;;;10.34;100.00;94343.00;5030148;28;105118;-81
2023/10/27 07:25:09;;;;;;;3.60;3.30;;;;;;;10.40;100.00;94351.63;5029896;28;105704;-78
2023/10/27 07:27:36;;;;;;;3.57;3.07;;;;;;;10.38;100.00;94348.50;5030462;28;102188;-78
2023/10/27 07:30:04;;;;;;;3.40;2.90;;;;;;;10.32;100.00;94358.47;5029634;27;105244;-79
2023/10/27 07:32:30;;;;;;;3.20;2.57;;;;;;;10.36;100.00;94363.97;5029608;28;105854;-78
2023/10/27 07:34:58;;;;;;;2.43;2.20;;;;;;;10.39;100.00;94368.66;5031785;28;102022;-78
2023/10/27 07:37:28;;;;;;;2.80;2.20;;;;;;;10.39;100.00;94372.13;5033235;28;104179;-78
2023/10/27 07:39:55;;;;;;;1.80;1.47;;;;;;;10.40;100.00;94372.88;5030015;28;101950;-76
2023/10/27 07:42:23;;;;;;;3.63;1.77;;;;;;;10.47;100.00;94362.66;5022829;28;105240;-77
2023/10/27 07:44:50;;;;;;;2.80;1.87;;;;;;;10.47;100.00;94363.44;5029660;28;105689;-77
2023/10/27 07:47:17;;;;;;;3.17;2.00;;;;;;;10.50;100.00;94367.38;5029921;28;102070;-78
2023/10/27 07:49:44;;;;;;;1.97;1.87;;;;;;;10.51;100.00;94367.06;5030133;28;104873;-78
2023/10/27 07:52:11;;;;;;;1.93;1.20;;;;;;;10.57;100.00;94367.75;5029331;28;105282;-78
2023/10/27 07:54:39;;;;;;;1.90;1.13;;;;;;;10.59;100.00;94377.00;5030119;28;102341;-77
2023/10/27 07:57:06;;;;;;;0.80;0.80;;;;;;;10.63;100.00;94377.19;5030083;28;103730;-77
2023/10/27 07:59:33;;;;;;;1.17;1.07;;;;;;;10.70;100.00;94381.03;5032947;28;106065;-77
2023/10/27 08:02:00;;;;;;;1.30;1.20;;;;;;;10.73;100.00;94377.75;5030006;28;104015;-77
2023/10/27 08:04:27;;;;;;;0.90;0.90;;;;;;;10.69;100.00;94378.66;5029347;28;104994;-77
2023/10/27 08:06:54;;;;;;;1.50;1.40;;;;;;;10.80;100.00;94372.03;5030135;28;101959;-77
2023/10/27 08:09:41;;;;;;;1.80;1.70;;;;;;;10.88;100.00;94377.41;5029550;28;105438;-77
2023/10/27 08:12:08;;;;;;;1.83;1.73;;;;;;;10.94;100.00;94384.19;5028448;28;105921;-77
2023/10/27 08:14:36;;;;;;;3.03;2.20;;;;;;;10.99;100.00;94383.28;5029891;28;101885;-77
2023/10/27 08:17:03;;;;;;;3.60;2.10;;;;;;;11.15;100.00;94379.19;5029743;28;105761;-77
2023/10/27 08:19:29;;;;;;;1.60;1.50;;;;;;;11.19;100.00;94394.25;5029642;28;105333;-77
2023/10/27 08:21:57;;;;;;;3.33;2.70;;;;;;;11.42;100.00;94395.03;5033080;28;102236;-77
2023/10/27 08:24:24;;;;;;;5.80;4.30;;;;;;;11.50;100.00;94392.41;5029213;28;103871;-77
2023/10/27 08:26:53;;;;;;;6.33;3.80;;;;;;;11.59;100.00;94397.81;5029591;28;101856;-77
2023/10/27 08:29:19;;;;;;;2.33;1.30;;;;;;;11.58;100.00;94388.25;5029410;28;104377;-77
2023/10/27 08:31:46;;;;;;;2.00;1.10;;;;;;;11.65;100.00;94396.59;5028983;28;105675;-77
2023/10/27 08:34:13;;;;;;;1.20;1.10;;;;;;;11.68;100.00;94386.16;5029303;28;102373;-77
2023/10/27 08:36:40;;;;;;;1.47;1.10;;;;;;;11.69;100.00;94406.34;5029646;28;105552;-77
2023/10/27 08:39:09;;;;;;;0.80;0.80;;;;;;;11.71;100.00;94404.16;5030204;27;102804;-77
2023/10/27 08:41:36;;;;;;;1.00;1.00;;;;;;;11.73;100.00;94398.53;5033695;28;102061;-77
2023/10/27 08:44:06;;;;;;;1.37;0.90;;;;;;;11.77;100.00;94413.59;5033931;28;102867;-77
2023/10/27 08:46:34;;;;;;;1.80;0.73;;;;;;;11.74;100.00;94413.41;5033082;28;102064;-77
2023/10/27 08:49:01;;;;;;;0.63;0.63;;;;;;;11.80;100.00;94410.34;5032879;28;105144;-77
2023/10/27 08:51:30;;;;;;;0.70;0.70;;;;;;;11.83;100.00;94414.25;5032181;28;105139;-77
2023/10/27 08:53:57;;;;;;;0.70;0.70;;;;;;;11.84;100.00;94421.94;5033198;28;101965;-77
2023/10/27 08:56:25;;;;;;;1.10;1.00;;;;;;;11.90;100.00;94423.41;5032133;28;105289;-77
2023/10/27 08:58:52;;;;;;;1.13;0.80;;;;;;;11.86;100.00;94427.75;5032476;28;104621;-77
2023/10/27 09:01:21;;;;;;;1.03;0.80;;;;;;;11.93;100.00;94435.31;5031619;28;102106;-78
2023/10/27 09:04:07;;;;;;;0.50;0.40;;;;;;;11.96;100.00;94442.69;5035244;28;105301;-78
2023/10/27 09:06:34;;;;;;;0.70;0.70;;;;;;;12.03;100.00;94443.81;5032589;28;102059;-79
2023/10/27 09:09:01;;;;;;;1.53;0.53;;;;;;;12.05;100.00;94438.97;5032710;28;105122;-77
2023/10/27 09:11:28;;;;;;;0.57;0.57;;;;;;;12.07;100.00;94446.66;5031721;28;105383;-77
2023/10/27 09:13:55;;;;;;;0.60;0.60;;;;;;;12.20;100.00;94459.09;5032720;28;101963;-77
2023/10/27 09:16:27;;;;;;;0.50;0.50;;;;;;;12.24;100.00;94460.06;5032824;28;104815;-77
2023/10/27 09:18:55;;;;;;;1.37;0.50;;;;;;;12.24;100.00;94468.84;5031576;28;105561;-77
2023/10/27 09:21:33;;;;;;;0.40;0.40;;;;;;;12.20;100.00;94481.19;5032642;28;101985;-77
2023/10/27 09:24:00;;;;;;;0.40;0.40;;;;;;;12.14;100.00;94468.31;5032612;28;104069;-77
2023/10/27 09:26:29;;;;;;;0.53;0.53;;;;;;;12.11;100.00;94498.25;5035347;28;105562;-77
2023/10/27 09:29:03;;;;;;;1.40;0.60;;;;;;;11.95;100.00;94499.72;5033608;28;103098;-77
2023/10/27 09:31:35;;;;;;;0.50;0.50;;;;;;;11.78;100.00;94499.59;5011575;28;105404;-79
2023/10/27 09:34:17;;;;;;;0.60;0.60;;;;;;;11.61;100.00;94520.78;5017998;28;101961;-79
2023/10/27 09:36:46;;;;;;;0.50;0.50;;;;;;;11.48;100.00;94533.00;5032416;28;104894;-79
2023/10/27 09:39:16;;;;;;;0.37;0.37;;;;;;;11.39;100.00;94542.78;5031541;28;104302;-79
2023/10/27 09:41:46;;;;;;;0.87;0.50;;;;;;;11.40;100.00;94556.88;5032470;28;101928;-79
2023/10/27 09:44:15;;;;;;;0.93;0.40;;;;;;;11.43;100.00;94549.09;5032282;28;105136;-80
2023/10/27 09:46:51;;;;;;;0.60;0.60;;;;;;;11.40;100.00;94556.88;5031522;28;105960;-82
2023/10/27 09:49:25;;;;;;;0.60;0.60;;;;;;;11.49;100.00;94547.88;5036226;28;101871;-82
2023/10/27 09:52:00;;;;;;;0.50;0.50;;;;;;;11.56;100.00;94558.13;5031104;27;104458;-82
2023/10/27 09:54:31;;;;;;;1.03;0.60;;;;;;;11.61;100.00;94571.34;5032034;28;101867;-82
2023/10/27 09:57:00;;;;;;;0.30;0.30;;;;;;;11.75;100.00;94553.44;5031734;28;105597;-82
2023/10/27 09:59:30;;;;;;;0.50;0.50;;;;;;;11.75;100.00;94559.56;5031881;28;103822;-86
2023/10/27 10:02:04;;;;;;;0.97;0.50;;;;;;;11.78;100.00;94558.19;5031424;28;103306;-81
2023/10/27 10:04:57;;;;;;;0.43;0.40;;;;;;;11.75;100.00;94558.75;5032056;28;104871;-80
2023/10/27 10:07:31;;;;;;;0.40;0.40;;;;;;;11.73;100.00;94559.06;5012526;28;105238;-80
2023/10/27 10:09:58;;;;;;;1.37;0.70;;;;;;;11.69;100.00;94552.00;5011659;28;101984;-79
2023/10/27 10:12:25;;;;;;;0.50;0.50;;;;;;;11.72;100.00;94556.72;5015887;28;102579;-80
2023/10/27 10:14:53;;;;;;;0.50;0.40;;;;;;;11.77;100.00;94557.38;5011852;28;102075;-81
2023/10/27 10:17:41;;;;;;;0.70;0.70;;;;;;;11.82;100.00;94556.50;5011432;28;105518;-81
2023/10/27 10:20:10;;;;;;;1.47;0.70;;;;;;;11.83;100.00;94548.19;5011078;28;105466;-82
2023/10/27 10:22:52;;;;;;;0.80;0.80;;;;;;;11.85;100.00;94546.03;5012276;28;101971;-83
2023/10/27 10:25:26;;;;;;;0.80;0.77;;;;;;;11.92;100.00;94549.03;5011558;28;105776;-80
2023/10/27 10:28:22;;;;;;;2.43;2.23;;;;;;;11.99;100.00;94540.63;5028756;28;103152;-77
2023/10/27 10:30:49;;;;;;;0.80;0.80;;;;;;;12.06;100.00;94548.97;5031205;28;101811;-82
2023/10/27 10:33:22;;;;;;;1.00;1.00;;;;;;;12.20;100.00;94525.69;5031880;28;105440;-87
2023/10/27 10:35:50;;;;;;;2.93;2.73;;;;;;;12.35;100.00;94527.97;5034099;28;101877;-80
2023/10/27 10:38:37;;;;;;;1.60;1.50;;;;;;;12.50;100.00;94523.06;5031700;28;104821;-79
2023/10/27 10:41:04;;;;;;;1.40;1.30;;;;;;;12.62;100.00;94520.59;5030774;28;106047;-81
2023/10/27 10:43:33;;;;;;;3.43;3.03;;;;;;;12.67;100.00;94530.34;5031416;28;101937;-81
2023/10/27 10:46:03;;;;;;;6.57;4.83;;;;;;;12.64;100.00;94533.63;5031247;28;105255;-81
2023/10/27 10:48:32;;;;;;;2.90;1.20;;;;;;;12.65;100.00;94529.88;5030403;28;104968;-81
2023/10/27 10:51:04;;;;;;;3.70;3.40;;;;;;;12.74;100.00;94538.66;5030638;28;102427;-81
2023/10/27 10:53:31;;;;;;;3.13;2.40;;;;;;;12.82;100.00;94514.69;5031086;28;105060;-81
2023/10/27 10:56:00;;;;;;;1.70;1.60;;;;;;;12.92;100.00;94508.31;5033222;27;105439;-81
2023/10/27 10:58:28;;;;;;;0.87;0.60;;;;;;;13.18;100.00;94503.81;5030918;28;105314;-81
2023/10/27 11:00:58;;;;;;;3.83;2.50;;;;;;;13.28;100.00;94499.00;5013966;28;104380;-81
2023/10/27 11:03:27;;;;;;;1.27;1.13;;;;;;;13.35;100.00;94507.31;5021150;27;102091;-81
2023/10/27 11:05:59;;;;;;;1.60;0.90;;;;;;;13.61;100.00;94493.97;5030067;28;105511;-81
2023/10/27 11:08:27;;;;;;;3.47;1.70;;;;;;;13.69;100.00;94501.97;5030558;28;105875;-81
2023/10/27 11:11:02;;;;;;;0.70;0.70;;;;;;;13.84;100.00;94509.53;5030790;28;102192;-81
2023/10/27 11:13:29;;;;;;;1.77;1.20;;;;;;;13.87;100.00;94487.53;5032297;28;102730;-80
2023/10/27 11:15:56;;;;;;;3.63;1.70;;;;;;;14.03;100.00;94493.94;5029894;28;105528;-81
2023/10/27 11:18:28;;;;;;;1.10;1.00;;;;;;;14.00;100.00;94496.47;5035604;28;101991;-81
2023/10/27 11:20:56;;;;;;;4.40;1.93;;;;;;;13.95;100.00;94505.44;5030090;28;105620;-81
2023/10/27 11:23:27;;;;;;;1.37;0.90;;;;;;;14.12;100.00;94504.63;5030805;28;102014;-81